createdAt,value
2023-04-20T00:00:59.710Z,16.00
2023-04-20T00:03:27.246Z,15.80
2023-04-20T00:05:54.248Z,15.60
2023-04-20T00:08:21.101Z,15.50
2023-04-20T00:10:47.735Z,15.50
2023-04-20T00:13:14.366Z,15.60
2023-04-20T00:15:41.057Z,15.60
2023-04-20T00:18:07.732Z,15.80
2023-04-20T00:20:35.126Z,15.70
2023-04-20T00:23:01.909Z,15.60
2023-04-20T00:25:29.583Z,15.40
2023-04-20T00:27:56.867Z,15.30
2023-04-20T00:30:23.648Z,15.40
2023-04-20T00:32:50.348Z,15.40
2023-04-20T00:35:16.978Z,15.50
2023-04-20T00:37:44.391Z,15.20
2023-04-20T00:40:11.394Z,15.00
2023-04-20T00:42:40.576Z,14.90
2023-04-20T00:45:07.856Z,14.90
2023-04-20T00:47:34.588Z,14.90
2023-04-20T00:50:02.766Z,14.90
2023-04-20T00:52:30.997Z,15.10
2023-04-20T00:54:58.542Z,15.20
2023-04-20T00:57:26.288Z,15.10
2023-04-20T00:59:53.022Z,15.10
2023-04-20T01:02:22.688Z,14.90
2023-04-20T01:04:49.497Z,14.90
2023-04-20T01:07:16.318Z,14.90
2023-04-20T01:09:42.971Z,14.80
2023-04-20T01:12:10.379Z,14.80
2023-04-20T01:14:37.182Z,14.80
2023-04-20T01:17:04.528Z,14.80
2023-04-20T01:19:31.752Z,14.70
2023-04-20T01:21:58.396Z,14.70
2023-04-20T01:24:25.001Z,14.70
2023-04-20T01:26:51.599Z,14.80
2023-04-20T01:29:18.398Z,14.90
2023-04-20T01:31:45.217Z,14.90
2023-04-20T01:34:11.908Z,14.80
2023-04-20T01:36:38.804Z,14.70
2023-04-20T01:39:07.195Z,14.70
2023-04-20T01:41:33.863Z,14.70
2023-04-20T01:44:00.481Z,14.70
2023-04-20T01:46:27.119Z,14.60
2023-04-20T01:48:53.760Z,14.60
2023-04-20T01:51:20.392Z,14.50
2023-04-20T01:53:46.981Z,14.50
2023-04-20T01:56:13.624Z,14.50
2023-04-20T01:58:40.354Z,14.60
2023-04-20T02:01:07.007Z,14.60
2023-04-20T02:03:33.751Z,14.50
2023-04-20T02:06:00.658Z,14.50
2023-04-20T02:08:29.807Z,14.50
2023-04-20T02:10:56.417Z,14.50
2023-04-20T02:13:23.034Z,14.50
2023-04-20T02:15:49.725Z,14.50
2023-04-20T02:18:16.497Z,14.50
2023-04-20T02:20:44.135Z,14.40
2023-04-20T02:23:11.022Z,14.50
2023-04-20T02:25:38.331Z,14.40
2023-04-20T02:28:05.482Z,14.60
2023-04-20T02:30:32.048Z,14.50
2023-04-20T02:32:59.280Z,14.40
2023-04-20T02:35:26.154Z,14.50
2023-04-20T02:37:52.796Z,14.40
2023-04-20T02:40:19.456Z,14.50
2023-04-20T02:42:46.235Z,14.40
2023-04-20T02:45:12.898Z,14.40
2023-04-20T02:47:42.701Z,14.40
2023-04-20T02:50:11.490Z,14.40
2023-04-20T02:52:55.657Z,14.40
2023-04-20T02:55:22.421Z,14.40
2023-04-20T02:57:53.361Z,14.50
2023-04-20T03:00:24.152Z,14.60
2023-04-20T03:03:02.153Z,14.50
2023-04-20T03:05:29.019Z,14.40
2023-04-20T03:07:56.709Z,14.30
2023-04-20T03:10:24.845Z,14.30
2023-04-20T03:13:14.373Z,14.40
2023-04-20T03:15:55.098Z,14.40
2023-04-20T03:18:32.063Z,14.40
2023-04-20T03:20:59.202Z,14.30
2023-04-20T03:23:27.651Z,14.30
2023-04-20T03:25:54.337Z,14.30
2023-04-20T03:28:37.067Z,14.30
2023-04-20T03:31:03.783Z,14.30
2023-04-20T03:33:30.773Z,14.30
2023-04-20T03:35:57.907Z,14.20
2023-04-20T03:38:24.538Z,14.30
2023-04-20T03:40:52.294Z,14.30
2023-04-20T03:43:19.672Z,14.30
2023-04-20T03:45:46.921Z,14.20
2023-04-20T03:48:17.012Z,14.30
2023-04-20T03:50:43.716Z,14.30
2023-04-20T03:53:10.559Z,14.20
2023-04-20T03:55:37.463Z,14.20
2023-04-20T03:58:07.654Z,14.10
2023-04-20T04:00:45.088Z,14.10
2023-04-20T04:03:13.863Z,14.00
2023-04-20T04:05:41.552Z,14.00
2023-04-20T04:08:08.326Z,14.00
2023-04-20T04:10:35.084Z,14.00
2023-04-20T04:13:01.711Z,14.00
2023-04-20T04:15:28.780Z,13.90
2023-04-20T04:18:02.995Z,14.00
2023-04-20T04:20:31.713Z,14.00
2023-04-20T04:22:58.433Z,13.90
2023-04-20T04:25:34.015Z,13.90
2023-04-20T04:28:00.730Z,13.90
2023-04-20T04:30:29.986Z,13.90
2023-04-20T04:32:57.416Z,13.90
2023-04-20T04:35:24.288Z,13.90
2023-04-20T04:37:52.647Z,13.90
2023-04-20T04:40:19.980Z,13.80
2023-04-20T04:42:48.912Z,13.80
2023-04-20T04:45:16.432Z,13.80
2023-04-20T04:47:43.166Z,13.90
2023-04-20T04:50:10.630Z,13.90
2023-04-20T04:52:37.351Z,13.90
2023-04-20T04:55:08.154Z,13.90
2023-04-20T04:57:35.030Z,13.80
2023-04-20T05:00:01.753Z,13.80
2023-04-20T05:02:28.735Z,13.80
2023-04-20T05:04:56.160Z,13.90
2023-04-20T05:07:22.973Z,13.80
2023-04-20T05:09:49.568Z,13.80
2023-04-20T05:12:16.233Z,13.80
2023-04-20T05:14:42.814Z,13.80
2023-04-20T05:17:09.475Z,13.80
2023-04-20T05:19:36.056Z,13.80
2023-04-20T05:22:02.697Z,13.80
2023-04-20T05:24:29.352Z,13.80
2023-04-20T05:26:55.962Z,13.80
2023-04-20T05:29:22.627Z,13.80
2023-04-20T05:31:49.318Z,13.80
2023-04-20T05:34:16.474Z,13.90
2023-04-20T05:36:43.093Z,13.90
2023-04-20T05:39:10.443Z,13.90
2023-04-20T05:41:37.054Z,13.80
2023-04-20T05:44:03.706Z,13.80
2023-04-20T05:46:30.511Z,13.80
2023-04-20T05:48:57.145Z,13.80
2023-04-20T05:51:25.736Z,13.80
2023-04-20T05:53:52.305Z,13.80
2023-04-20T05:56:18.897Z,13.80
2023-04-20T05:58:46.039Z,13.80
2023-04-20T06:01:12.666Z,13.80
2023-04-20T06:03:39.552Z,13.80
2023-04-20T06:06:06.971Z,13.70
2023-04-20T06:08:33.581Z,13.70
2023-04-20T06:11:00.198Z,13.70
2023-04-20T06:13:26.857Z,13.70
2023-04-20T06:15:54.148Z,13.70
2023-04-20T06:18:21.292Z,13.70
2023-04-20T06:20:47.895Z,13.80
2023-04-20T06:23:14.490Z,13.70
2023-04-20T06:25:41.293Z,13.70
2023-04-20T06:28:08.012Z,13.70
2023-04-20T06:30:34.916Z,13.70
2023-04-20T06:33:02.970Z,13.80
2023-04-20T06:35:29.678Z,13.70
2023-04-20T06:37:57.411Z,13.70
2023-04-20T06:40:28.564Z,13.70
2023-04-20T06:42:55.321Z,13.70
2023-04-20T06:45:22.469Z,13.70
2023-04-20T06:47:49.138Z,13.80
2023-04-20T06:50:15.916Z,13.80
2023-04-20T06:52:42.693Z,13.80
2023-04-20T06:55:10.034Z,13.70
2023-04-20T06:57:39.596Z,13.70
2023-04-20T07:00:10.830Z,13.80
2023-04-20T07:02:49.034Z,13.80
2023-04-20T07:05:16.563Z,13.80
2023-04-20T07:07:44.029Z,13.80
2023-04-20T07:10:13.516Z,13.70
2023-04-20T07:12:42.306Z,13.70
2023-04-20T07:15:10.471Z,13.70
2023-04-20T07:17:37.095Z,13.70
2023-04-20T07:20:08.847Z,13.70
2023-04-20T07:22:36.877Z,13.70
2023-04-20T07:25:08.938Z,13.70
2023-04-20T07:27:37.502Z,13.70
2023-04-20T07:30:06.606Z,13.80
2023-04-20T07:32:33.986Z,13.70
2023-04-20T07:35:00.797Z,13.80
2023-04-20T07:37:27.594Z,13.80
2023-04-20T07:39:54.181Z,13.70
2023-04-20T07:42:21.535Z,13.70
2023-04-20T07:44:48.550Z,13.70
2023-04-20T07:47:15.274Z,13.80
2023-04-20T07:49:43.002Z,13.80
2023-04-20T07:52:16.336Z,13.80
2023-04-20T07:54:44.957Z,13.70
2023-04-20T07:57:11.691Z,13.70
2023-04-20T07:59:39.222Z,13.70
2023-04-20T08:02:06.430Z,13.70
2023-04-20T08:04:33.278Z,13.70
2023-04-20T08:07:00.209Z,13.70
2023-04-20T08:09:27.446Z,13.70
2023-04-20T08:11:54.028Z,13.70
2023-04-20T08:14:21.356Z,13.70
2023-04-20T08:16:48.383Z,13.70
2023-04-20T08:21:46.696Z,13.70
2023-04-20T08:24:13.609Z,13.70
2023-04-20T08:26:40.666Z,13.70
2023-04-20T08:29:07.339Z,13.80
2023-04-20T08:31:34.072Z,13.70
2023-04-20T08:34:01.014Z,13.70
2023-04-20T08:36:28.027Z,13.60
2023-04-20T08:39:11.838Z,13.70
2023-04-20T08:41:38.953Z,13.60
2023-04-20T08:44:06.893Z,13.60
2023-04-20T08:46:34.415Z,13.70
2023-04-20T08:49:04.412Z,13.70
2023-04-20T08:51:32.407Z,13.70
2023-04-20T08:54:06.035Z,13.70
2023-04-20T08:56:37.563Z,13.80
2023-04-20T08:59:05.462Z,13.80
2023-04-20T09:01:36.157Z,13.80
2023-04-20T09:04:14.718Z,13.80
2023-04-20T09:06:44.602Z,13.80
2023-04-20T09:09:11.586Z,13.80
2023-04-20T09:11:38.203Z,13.90
2023-04-20T09:14:10.747Z,13.90
2023-04-20T09:16:39.404Z,13.90
2023-04-20T09:19:08.997Z,14.00
2023-04-20T09:21:36.307Z,14.00
2023-04-20T09:24:08.565Z,14.00
2023-04-20T09:26:38.160Z,14.00
2023-04-20T09:29:15.992Z,14.10
2023-04-20T09:31:42.652Z,14.00
2023-04-20T09:34:09.271Z,14.00
2023-04-20T09:36:41.747Z,14.00
2023-04-20T09:39:19.270Z,13.90
2023-04-20T09:41:47.002Z,13.90
2023-04-20T09:44:15.485Z,13.90
2023-04-20T09:46:43.308Z,14.00
2023-04-20T09:49:12.279Z,14.00
2023-04-20T09:51:47.557Z,14.00
2023-04-20T09:54:15.501Z,14.10
2023-04-20T09:56:42.600Z,14.10
2023-04-20T09:59:09.364Z,14.10
2023-04-20T10:01:37.998Z,14.10
2023-04-20T10:04:09.284Z,14.30
2023-04-20T10:06:37.268Z,14.50
2023-04-20T10:09:08.588Z,14.60
2023-04-20T10:11:52.339Z,14.60
2023-04-20T10:14:25.806Z,14.50
2023-04-20T10:17:00.557Z,14.50
2023-04-20T10:19:47.284Z,14.50
2023-04-20T10:22:32.791Z,14.40
2023-04-20T10:25:01.197Z,14.40
2023-04-20T10:27:28.416Z,14.40
2023-04-20T10:29:55.119Z,14.40
2023-04-20T10:32:23.992Z,14.40
2023-04-20T10:35:04.844Z,14.40
2023-04-20T10:37:32.157Z,14.40
2023-04-20T10:39:59.535Z,14.40
2023-04-20T10:42:26.560Z,14.40
2023-04-20T10:44:54.422Z,14.50
2023-04-20T10:47:32.287Z,14.50
2023-04-20T10:50:15.935Z,14.60
2023-04-20T10:52:44.425Z,14.40
2023-04-20T10:55:25.525Z,14.50
2023-04-20T10:57:53.126Z,14.50
2023-04-20T11:00:21.950Z,14.50
2023-04-20T11:02:53.486Z,14.60
2023-04-20T11:05:22.076Z,14.60
2023-04-20T11:07:56.030Z,14.50
2023-04-20T11:10:25.107Z,14.50
2023-04-20T11:12:51.948Z,14.60
2023-04-20T11:15:18.711Z,14.60
2023-04-20T11:17:46.750Z,14.60
2023-04-20T11:20:16.803Z,14.50
2023-04-20T11:22:44.413Z,14.60
2023-04-20T11:25:12.333Z,14.50
2023-04-20T11:27:39.511Z,14.50
2023-04-20T11:30:07.874Z,14.50
2023-04-20T11:32:36.428Z,14.50
2023-04-20T11:35:07.856Z,14.50
2023-04-20T11:37:48.853Z,14.50
2023-04-20T11:40:15.576Z,14.50
2023-04-20T11:42:42.331Z,14.40
2023-04-20T11:45:09.424Z,14.50
2023-04-20T11:47:36.058Z,14.50
2023-04-20T11:50:02.740Z,14.50
2023-04-20T11:52:29.483Z,14.50
2023-04-20T11:54:56.346Z,14.60
2023-04-20T11:57:23.892Z,14.60
2023-04-20T11:59:50.619Z,14.60
2023-04-20T12:02:17.445Z,14.60
2023-04-20T12:04:44.285Z,14.50
2023-04-20T12:07:11.041Z,14.50
2023-04-20T12:09:38.409Z,14.50
2023-04-20T12:12:05.948Z,14.50
2023-04-20T12:14:36.170Z,14.50
2023-04-20T12:17:04.281Z,14.50
2023-04-20T12:19:31.671Z,14.40
2023-04-20T12:21:58.294Z,14.40
2023-04-20T12:24:25.005Z,14.40
2023-04-20T12:26:51.676Z,14.40
2023-04-20T12:29:18.547Z,14.40
2023-04-20T12:31:45.403Z,14.40
2023-04-20T12:34:12.479Z,14.40
2023-04-20T12:36:39.098Z,14.30
2023-04-20T12:39:05.821Z,14.40
2023-04-20T12:41:33.213Z,14.40
2023-04-20T12:44:01.120Z,14.40
2023-04-20T12:46:28.938Z,14.40
2023-04-20T12:48:56.102Z,14.40
2023-04-20T12:51:22.778Z,14.40
2023-04-20T12:53:49.399Z,14.40
2023-04-20T12:56:16.113Z,14.50
2023-04-20T12:58:43.320Z,14.50
2023-04-20T13:01:10.045Z,14.60
2023-04-20T13:03:36.904Z,14.60
2023-04-20T13:06:03.836Z,14.60
2023-04-20T13:08:30.598Z,14.70
2023-04-20T13:10:57.206Z,14.70
2023-04-20T13:13:23.828Z,14.70
2023-04-20T13:15:53.073Z,14.70
2023-04-20T13:18:20.586Z,14.70
2023-04-20T13:20:47.195Z,14.70
2023-04-20T13:23:15.363Z,14.70
2023-04-20T13:25:42.160Z,14.70
2023-04-20T13:28:08.817Z,14.70
2023-04-20T13:30:35.489Z,14.70
2023-04-20T13:33:02.169Z,14.70
2023-04-20T13:35:29.124Z,14.70
2023-04-20T13:37:56.125Z,14.80
2023-04-20T13:40:22.858Z,14.80
2023-04-20T13:42:49.764Z,14.70
2023-04-20T13:45:17.019Z,14.70
2023-04-20T13:47:44.210Z,14.70
2023-04-20T13:50:10.984Z,14.60
2023-04-20T13:52:37.738Z,14.60
2023-04-20T13:55:05.365Z,14.70
2023-04-20T13:57:32.011Z,14.70
2023-04-20T14:00:00.786Z,14.70
2023-04-20T14:02:28.642Z,14.70
2023-04-20T14:04:56.718Z,14.80
2023-04-20T14:07:23.516Z,14.80
2023-04-20T14:09:50.944Z,14.70
2023-04-20T14:12:17.631Z,14.80
2023-04-20T14:14:44.263Z,14.80
2023-04-20T14:17:11.555Z,14.80
2023-04-20T14:19:38.277Z,14.80
2023-04-20T14:22:04.927Z,14.80
2023-04-20T14:24:31.569Z,14.80
2023-04-20T14:26:59.796Z,14.90
2023-04-20T14:29:26.417Z,14.80
2023-04-20T14:31:53.219Z,14.90
2023-04-20T14:34:20.112Z,14.90
2023-04-20T14:36:47.005Z,14.90
2023-04-20T14:39:13.645Z,14.80
2023-04-20T14:41:40.357Z,14.90
2023-04-20T14:44:07.007Z,14.90
2023-04-20T14:46:33.745Z,14.90
2023-04-20T14:49:00.519Z,14.90
2023-04-20T14:51:28.036Z,14.90
2023-04-20T14:53:54.646Z,14.90
2023-04-20T14:56:21.541Z,14.90
2023-04-20T14:58:48.217Z,15.00
2023-04-20T15:01:15.494Z,15.00
2023-04-20T15:03:42.300Z,14.90
2023-04-20T15:06:09.207Z,15.00
2023-04-20T15:08:35.861Z,15.00
2023-04-20T15:11:04.954Z,15.00
2023-04-20T15:13:31.850Z,15.00
2023-04-20T15:15:58.494Z,14.90
2023-04-20T15:18:25.167Z,14.90
2023-04-20T15:20:52.446Z,15.00
2023-04-20T15:23:19.572Z,15.10
2023-04-20T15:25:46.240Z,15.10
2023-04-20T15:28:12.984Z,15.10
2023-04-20T15:30:39.629Z,15.10
2023-04-20T15:33:06.603Z,15.10
2023-04-20T15:35:34.783Z,15.20
2023-04-20T15:38:01.644Z,15.30
2023-04-20T15:40:28.377Z,15.30
2023-04-20T15:42:55.648Z,15.30
2023-04-20T15:45:23.029Z,15.40
2023-04-20T15:47:49.925Z,15.40
2023-04-20T15:50:17.140Z,15.40
2023-04-20T15:52:44.454Z,15.50
2023-04-20T15:55:11.732Z,15.50
2023-04-20T15:57:38.347Z,15.50
2023-04-20T16:00:05.585Z,15.50
2023-04-20T16:02:39.855Z,15.50
2023-04-20T16:05:09.722Z,15.50
2023-04-20T16:07:36.409Z,15.50
2023-04-20T16:10:03.256Z,15.50
2023-04-20T16:12:29.913Z,15.50
2023-04-20T16:14:57.140Z,15.50
2023-04-20T16:17:24.041Z,15.50
2023-04-20T16:19:50.902Z,15.50
2023-04-20T16:22:17.703Z,15.50
2023-04-20T16:24:44.364Z,15.50
2023-04-20T16:27:11.040Z,15.50
2023-04-20T16:29:37.643Z,15.50
2023-04-20T16:32:04.417Z,15.40
2023-04-20T16:34:31.525Z,15.40
2023-04-20T16:36:58.505Z,15.40
2023-04-20T16:39:25.281Z,15.40
2023-04-20T16:41:51.962Z,15.40
2023-04-20T16:44:18.909Z,15.40
2023-04-20T16:46:49.789Z,15.40
2023-04-20T16:49:16.743Z,15.30
2023-04-20T16:51:43.679Z,15.30
2023-04-20T16:54:11.595Z,15.30
2023-04-20T16:56:38.673Z,15.30
2023-04-20T16:59:05.577Z,15.30
2023-04-20T17:01:32.299Z,15.20
2023-04-20T17:04:01.899Z,15.30
2023-04-20T17:06:28.665Z,15.30
2023-04-20T17:08:57.481Z,15.60
2023-04-20T17:11:24.142Z,16.00
2023-04-20T17:13:50.801Z,16.30
2023-04-20T17:16:17.468Z,16.20
2023-04-20T17:18:44.068Z,16.10
2023-04-20T17:21:10.735Z,16.00
2023-04-20T17:23:37.371Z,15.80
2023-04-20T17:26:04.030Z,15.80
2023-04-20T17:28:30.636Z,15.80
2023-04-20T17:30:57.242Z,15.70
2023-04-20T17:33:23.877Z,15.70
2023-04-20T17:35:50.646Z,15.60
2023-04-20T17:38:17.282Z,15.70
2023-04-20T17:40:44.019Z,15.70
2023-04-20T17:43:11.062Z,15.70
2023-04-20T17:45:37.736Z,15.90
2023-04-20T17:48:05.271Z,15.70
2023-04-20T17:50:31.909Z,15.70
2023-04-20T17:52:58.526Z,15.60
2023-04-20T17:55:25.384Z,15.50
2023-04-20T17:57:52.013Z,15.40
2023-04-20T18:00:20.355Z,15.40
2023-04-20T18:02:47.096Z,15.40
2023-04-20T18:05:13.833Z,15.40
2023-04-20T18:07:40.629Z,15.40
2023-04-20T18:10:07.932Z,15.40
2023-04-20T18:12:35.622Z,15.30
2023-04-20T18:15:02.288Z,15.30
2023-04-20T18:17:28.942Z,15.40
2023-04-20T18:19:55.568Z,15.50
2023-04-20T18:22:23.351Z,15.40
2023-04-20T18:24:50.095Z,15.70
2023-04-20T18:27:17.070Z,15.60
2023-04-20T18:29:43.725Z,15.40
2023-04-20T18:32:10.394Z,15.50
2023-04-20T18:34:37.051Z,15.40
2023-04-20T18:37:03.727Z,15.30
2023-04-20T18:39:30.365Z,15.40
2023-04-20T18:41:56.978Z,15.40
2023-04-20T18:44:23.725Z,15.50
2023-04-20T18:46:50.458Z,15.80
2023-04-20T18:49:17.081Z,15.70
2023-04-20T18:51:43.723Z,15.70
2023-04-20T18:54:10.397Z,15.60
2023-04-20T18:56:38.535Z,15.60
2023-04-20T18:59:06.076Z,15.50
2023-04-20T19:01:32.970Z,15.60
2023-04-20T19:03:59.994Z,15.70
2023-04-20T19:06:27.890Z,15.70
2023-04-20T19:08:55.829Z,15.60
2023-04-20T19:11:23.089Z,15.60
2023-04-20T19:13:49.743Z,15.50
2023-04-20T19:16:16.440Z,15.40
2023-04-20T19:18:43.872Z,15.40
2023-04-20T19:21:10.615Z,15.40
2023-04-20T19:23:37.238Z,15.50
2023-04-20T19:26:04.218Z,15.40
2023-04-20T19:28:30.964Z,15.30
2023-04-20T19:30:58.333Z,15.30
2023-04-20T19:33:25.335Z,15.40
2023-04-20T19:35:52.145Z,15.40
2023-04-20T19:38:19.949Z,15.50
2023-04-20T19:40:47.861Z,15.60
2023-04-20T19:43:14.457Z,15.50
2023-04-20T19:45:41.147Z,15.40
2023-04-20T19:48:08.002Z,15.30
2023-04-20T19:50:34.678Z,15.20
2023-04-20T19:53:01.482Z,15.30
2023-04-20T19:55:28.159Z,15.30
2023-04-20T19:57:54.803Z,15.20
2023-04-20T20:00:21.442Z,15.20
2023-04-20T20:02:48.242Z,15.40
2023-04-20T20:05:15.309Z,15.40
2023-04-20T20:07:42.334Z,15.40
2023-04-20T20:10:09.033Z,15.20
2023-04-20T20:12:35.686Z,15.20
2023-04-20T20:15:03.830Z,15.10
2023-04-20T20:17:30.522Z,15.20
2023-04-20T20:19:57.214Z,15.20
2023-04-20T20:22:23.820Z,15.20
2023-04-20T20:24:52.083Z,15.10
2023-04-20T20:27:18.760Z,15.00
2023-04-20T20:29:45.463Z,15.10
2023-04-20T20:32:12.064Z,15.20
2023-04-20T20:34:39.010Z,15.20
2023-04-20T20:37:05.776Z,15.20
2023-04-20T20:39:32.394Z,15.10
2023-04-20T20:42:01.615Z,15.00
2023-04-20T20:44:29.647Z,15.20
2023-04-20T20:46:56.402Z,15.30
2023-04-20T20:49:23.019Z,15.10
2023-04-20T20:51:49.673Z,15.00
2023-04-20T20:54:16.475Z,15.00
2023-04-20T20:56:43.590Z,14.90
2023-04-20T20:59:10.506Z,14.90
2023-04-20T21:01:37.128Z,14.90
2023-04-20T21:04:04.719Z,14.80
2023-04-20T21:06:32.593Z,14.70
2023-04-20T21:08:59.415Z,14.80
2023-04-20T21:11:26.027Z,15.00
2023-04-20T21:13:52.659Z,15.10
2023-04-20T21:16:19.285Z,15.00
2023-04-20T21:18:45.931Z,14.90
2023-04-20T21:21:13.206Z,14.90
2023-04-20T21:23:40.100Z,14.90
2023-04-20T21:26:06.679Z,14.90
2023-04-20T21:28:33.348Z,14.80
2023-04-20T21:31:00.019Z,14.80
2023-04-20T21:33:29.830Z,14.80
2023-04-20T21:35:58.458Z,14.80
2023-04-20T21:38:25.665Z,14.80
2023-04-20T21:40:52.297Z,14.90
2023-04-20T21:43:18.949Z,15.00
2023-04-20T21:45:45.670Z,15.00
2023-04-20T21:48:12.315Z,15.00
2023-04-20T21:50:39.093Z,14.90
2023-04-20T21:53:05.723Z,14.90
2023-04-20T21:55:32.489Z,14.90
2023-04-20T21:57:59.101Z,14.90
2023-04-20T22:00:25.755Z,15.00
2023-04-20T22:02:52.705Z,14.80
2023-04-20T22:05:19.481Z,14.90
2023-04-20T22:07:46.626Z,15.00
2023-04-20T22:10:13.287Z,14.80
2023-04-20T22:12:42.182Z,14.80
2023-04-20T22:15:13.516Z,14.70
2023-04-20T22:17:41.005Z,15.00
2023-04-20T22:20:10.142Z,14.90
2023-04-20T22:22:37.558Z,14.80
2023-04-20T22:25:05.196Z,14.70
2023-04-20T22:27:32.710Z,14.70
2023-04-20T22:29:59.423Z,14.70
2023-04-20T22:32:26.165Z,14.70
2023-04-20T22:34:52.778Z,14.70
2023-04-20T22:37:19.428Z,14.70
2023-04-20T22:39:46.040Z,14.70
2023-04-20T22:42:12.675Z,14.60
2023-04-20T22:44:39.284Z,14.70
2023-04-20T22:47:06.400Z,14.50
2023-04-20T22:49:33.100Z,14.70
2023-04-20T22:51:59.775Z,14.50
2023-04-20T22:54:26.403Z,14.60
2023-04-20T22:56:53.420Z,14.60
2023-04-20T22:59:20.193Z,14.50
2023-04-20T23:01:47.055Z,14.60
2023-04-20T23:04:13.777Z,14.60
2023-04-20T23:06:43.688Z,14.60
2023-04-20T23:09:12.469Z,14.60
2023-04-20T23:11:39.689Z,14.60
2023-04-20T23:14:07.395Z,14.60
2023-04-20T23:16:35.028Z,14.60
2023-04-20T23:19:01.820Z,14.70
2023-04-20T23:21:28.847Z,14.50
2023-04-20T23:23:58.459Z,14.70
2023-04-20T23:26:25.448Z,14.70
2023-04-20T23:28:53.222Z,14.60
2023-04-20T23:31:20.529Z,14.60
2023-04-20T23:33:47.970Z,14.60
2023-04-20T23:36:15.098Z,14.50
2023-04-20T23:38:42.080Z,14.70
2023-04-20T23:41:10.187Z,14.60
2023-04-20T23:43:38.340Z,14.50
2023-04-20T23:46:06.325Z,14.50
2023-04-20T23:48:33.658Z,14.70
2023-04-20T23:51:00.901Z,14.70
2023-04-20T23:53:27.645Z,14.70
2023-04-20T23:55:57.044Z,14.70
2023-04-20T23:58:27.896Z,14.60
